sensor_id;sensor_type;location;lat;lon;timestamp;P1;durP1;ratioP1;P2;durP2;ratioP2
46925;SDS011;32667;48.248;-1.700;2022-08-11T00:01:19;0.10;;;0.10;;
46925;SDS011;32667;48.248;-1.700;2022-08-11T00:03:57;0.10;;;0.10;;
46925;SDS011;32667;48.248;-1.700;2022-08-11T00:06:35;0.10;;;0.10;;
46925;SDS011;32667;48.248;-1.700;2022-08-11T00:09:04;0.00;;;0.00;;
46925;SDS011;32667;48.248;-1.700;2022-08-11T00:11:53;0.10;;;0.10;;
46925;SDS011;32667;48.248;-1.700;2022-08-11T00:14:21;0.10;;;0.10;;
46925;SDS011;32667;48.248;-1.700;2022-08-11T00:19:22;0.10;;;0.10;;
46925;SDS011;32667;48.248;-1.700;2022-08-11T00:21:51;0.10;;;0.10;;
46925;SDS011;32667;48.248;-1.700;2022-08-11T00:24:19;0.10;;;0.10;;
46925;SDS011;32667;48.248;-1.700;2022-08-11T00:26:49;0.10;;;0.10;;
46925;SDS011;32667;48.248;-1.700;2022-08-11T00:29:17;0.10;;;0.10;;
46925;SDS011;32667;48.248;-1.700;2022-08-11T00:31:48;0.10;;;0.10;;
46925;SDS011;32667;48.248;-1.700;2022-08-11T00:34:17;0.10;;;0.10;;
46925;SDS011;32667;48.248;-1.700;2022-08-11T00:39:20;0.10;;;0.10;;
46925;SDS011;32667;48.248;-1.700;2022-08-11T00:50:40;0.00;;;0.00;;
46925;SDS011;32667;48.248;-1.700;2022-08-11T01:01:40;0.10;;;0.10;;
46925;SDS011;32667;48.248;-1.700;2022-08-11T01:43:56;0.10;;;0.10;;
46925;SDS011;32667;48.248;-1.700;2022-08-11T01:57:43;0.10;;;0.10;;
46925;SDS011;32667;48.248;-1.700;2022-08-11T02:00:21;0.10;;;0.10;;
46925;SDS011;32667;48.248;-1.700;2022-08-11T02:08:23;0.10;;;0.10;;
46925;SDS011;32667;48.248;-1.700;2022-08-11T02:11:08;0.00;;;0.00;;
46925;SDS011;32667;48.248;-1.700;2022-08-11T02:16:46;0.10;;;0.10;;
46925;SDS011;32667;48.248;-1.700;2022-08-11T02:22:15;0.10;;;0.10;;
46925;SDS011;32667;48.248;-1.700;2022-08-11T02:27:52;0.10;;;0.10;;
46925;SDS011;32667;48.248;-1.700;2022-08-11T02:30:27;0.10;;;0.10;;
46925;SDS011;32667;48.248;-1.700;2022-08-11T02:33:07;0.10;;;0.10;;
46925;SDS011;32667;48.248;-1.700;2022-08-11T02:35:57;0.10;;;0.10;;
46925;SDS011;32667;48.248;-1.700;2022-08-11T02:41:22;0.10;;;0.10;;
46925;SDS011;32667;48.248;-1.700;2022-08-11T03:01:47;0.10;;;0.10;;
46925;SDS011;32667;48.248;-1.700;2022-08-11T03:05:04;0.10;;;0.10;;
46925;SDS011;32667;48.248;-1.700;2022-08-11T03:07:24;0.10;;;0.10;;
46925;SDS011;32667;48.248;-1.700;2022-08-11T03:21:52;0.10;;;0.10;;
46925;SDS011;32667;48.248;-1.700;2022-08-11T03:24:30;0.13;;;0.13;;
46925;SDS011;32667;48.248;-1.700;2022-08-11T03:32:34;0.10;;;0.10;;
46925;SDS011;32667;48.248;-1.700;2022-08-11T03:35:30;0.10;;;0.10;;
46925;SDS011;32667;48.248;-1.700;2022-08-11T03:38:03;0.10;;;0.10;;
46925;SDS011;32667;48.248;-1.700;2022-08-11T03:43:56;0.10;;;0.10;;
46925;SDS011;32667;48.248;-1.700;2022-08-11T03:49:35;0.10;;;0.10;;
46925;SDS011;32667;48.248;-1.700;2022-08-11T03:55:27;0.10;;;0.10;;
46925;SDS011;32667;48.248;-1.700;2022-08-11T04:50:43;0.10;;;0.10;;
46925;SDS011;32667;48.248;-1.700;2022-08-11T04:57:07;0.10;;;0.10;;
46925;SDS011;32667;48.248;-1.700;2022-08-11T05:14:22;0.10;;;0.10;;
46925;SDS011;32667;48.248;-1.700;2022-08-11T05:17:31;0.10;;;0.10;;
46925;SDS011;32667;48.248;-1.700;2022-08-11T05:20:20;0.10;;;0.10;;
46925;SDS011;32667;48.248;-1.700;2022-08-11T05:23:06;0.15;;;0.15;;
46925;SDS011;32667;48.248;-1.700;2022-08-11T05:25:54;0.10;;;0.10;;
46925;SDS011;32667;48.248;-1.700;2022-08-11T05:31:37;0.10;;;0.10;;
46925;SDS011;32667;48.248;-1.700;2022-08-11T05:34:50;0.10;;;0.10;;
46925;SDS011;32667;48.248;-1.700;2022-08-11T05:39:50;0.10;;;0.10;;
46925;SDS011;32667;48.248;-1.700;2022-08-11T05:42:47;0.10;;;0.10;;
46925;SDS011;32667;48.248;-1.700;2022-08-11T05:45:33;0.10;;;0.10;;
46925;SDS011;32667;48.248;-1.700;2022-08-11T05:48:19;0.20;;;0.20;;
46925;SDS011;32667;48.248;-1.700;2022-08-11T05:51:05;0.10;;;0.10;;
46925;SDS011;32667;48.248;-1.700;2022-08-11T05:53:57;0.10;;;0.10;;
46925;SDS011;32667;48.248;-1.700;2022-08-11T05:56:48;0.10;;;0.10;;
46925;SDS011;32667;48.248;-1.700;2022-08-11T05:59:18;0.10;;;0.10;;
46925;SDS011;32667;48.248;-1.700;2022-08-11T06:01:47;0.10;;;0.10;;
46925;SDS011;32667;48.248;-1.700;2022-08-11T06:04:15;0.10;;;0.10;;
46925;SDS011;32667;48.248;-1.700;2022-08-11T06:07:09;0.20;;;0.20;;
46925;SDS011;32667;48.248;-1.700;2022-08-11T06:09:36;0.10;;;0.10;;
46925;SDS011;32667;48.248;-1.700;2022-08-11T06:12:03;0.10;;;0.10;;
46925;SDS011;32667;48.248;-1.700;2022-08-11T06:14:32;0.10;;;0.10;;
46925;SDS011;32667;48.248;-1.700;2022-08-11T06:17:00;0.10;;;0.10;;
46925;SDS011;32667;48.248;-1.700;2022-08-11T06:19:31;0.10;;;0.10;;
46925;SDS011;32667;48.248;-1.700;2022-08-11T06:21:58;0.10;;;0.10;;
46925;SDS011;32667;48.248;-1.700;2022-08-11T06:24:26;0.10;;;0.10;;
46925;SDS011;32667;48.248;-1.700;2022-08-11T06:26:53;0.10;;;0.10;;
46925;SDS011;32667;48.248;-1.700;2022-08-11T06:29:20;0.10;;;0.10;;
46925;SDS011;32667;48.248;-1.700;2022-08-11T06:31:57;0.20;;;0.20;;
46925;SDS011;32667;48.248;-1.700;2022-08-11T06:45:35;0.10;;;0.10;;
46925;SDS011;32667;48.248;-1.700;2022-08-11T06:48:22;0.20;;;0.20;;
46925;SDS011;32667;48.248;-1.700;2022-08-11T06:50:55;0.10;;;0.10;;
46925;SDS011;32667;48.248;-1.700;2022-08-11T06:53:49;0.20;;;0.20;;
46925;SDS011;32667;48.248;-1.700;2022-08-11T06:56:22;0.10;;;0.10;;
46925;SDS011;32667;48.248;-1.700;2022-08-11T06:59:19;0.10;;;0.10;;
46925;SDS011;32667;48.248;-1.700;2022-08-11T07:03:07;0.20;;;0.20;;
46925;SDS011;32667;48.248;-1.700;2022-08-11T07:05:04;0.10;;;0.10;;
46925;SDS011;32667;48.248;-1.700;2022-08-11T07:10:51;0.10;;;0.10;;
46925;SDS011;32667;48.248;-1.700;2022-08-11T07:14:00;0.10;;;0.10;;
46925;SDS011;32667;48.248;-1.700;2022-08-11T07:16:47;0.10;;;0.10;;
46925;SDS011;32667;48.248;-1.700;2022-08-11T07:19:26;0.10;;;0.10;;
46925;SDS011;32667;48.248;-1.700;2022-08-11T07:22:16;0.10;;;0.10;;
46925;SDS011;32667;48.248;-1.700;2022-08-11T07:25:08;0.00;;;0.00;;
46925;SDS011;32667;48.248;-1.700;2022-08-11T07:28:00;0.10;;;0.10;;
46925;SDS011;32667;48.248;-1.700;2022-08-11T07:30:47;0.10;;;0.10;;
46925;SDS011;32667;48.248;-1.700;2022-08-11T07:33:21;0.10;;;0.10;;
46925;SDS011;32667;48.248;-1.700;2022-08-11T07:35:53;0.10;;;0.10;;
46925;SDS011;32667;48.248;-1.700;2022-08-11T07:38:23;0.10;;;0.10;;
46925;SDS011;32667;48.248;-1.700;2022-08-11T07:41:08;0.10;;;0.10;;
46925;SDS011;32667;48.248;-1.700;2022-08-11T07:43:36;0.10;;;0.10;;
46925;SDS011;32667;48.248;-1.700;2022-08-11T07:46:03;0.10;;;0.10;;
46925;SDS011;32667;48.248;-1.700;2022-08-11T07:48:49;0.10;;;0.10;;
46925;SDS011;32667;48.248;-1.700;2022-08-11T07:51:35;0.10;;;0.10;;
46925;SDS011;32667;48.248;-1.700;2022-08-11T07:56:46;0.10;;;0.10;;
46925;SDS011;32667;48.248;-1.700;2022-08-11T07:59:12;0.10;;;0.10;;
46925;SDS011;32667;48.248;-1.700;2022-08-11T08:01:57;0.10;;;0.10;;
46925;SDS011;32667;48.248;-1.700;2022-08-11T08:04:44;0.10;;;0.10;;
46925;SDS011;32667;48.248;-1.700;2022-08-11T08:07:29;0.10;;;0.10;;
46925;SDS011;32667;48.248;-1.700;2022-08-11T08:10:14;0.10;;;0.10;;
46925;SDS011;32667;48.248;-1.700;2022-08-11T08:13:01;0.10;;;0.10;;
46925;SDS011;32667;48.248;-1.700;2022-08-11T08:15:47;0.00;;;0.00;;
46925;SDS011;32667;48.248;-1.700;2022-08-11T08:18:35;0.00;;;0.00;;
46925;SDS011;32667;48.248;-1.700;2022-08-11T08:21:03;0.10;;;0.10;;
46925;SDS011;32667;48.248;-1.700;2022-08-11T08:23:40;0.10;;;0.10;;
46925;SDS011;32667;48.248;-1.700;2022-08-11T08:26:09;0.10;;;0.10;;
46925;SDS011;32667;48.248;-1.700;2022-08-11T08:28:59;0.00;;;0.00;;
46925;SDS011;32667;48.248;-1.700;2022-08-11T08:31:48;0.10;;;0.10;;
46925;SDS011;32667;48.248;-1.700;2022-08-11T08:34:16;0.00;;;0.00;;
46925;SDS011;32667;48.248;-1.700;2022-08-11T08:36:46;0.10;;;0.10;;
46925;SDS011;32667;48.248;-1.700;2022-08-11T08:39:14;0.10;;;0.10;;
46925;SDS011;32667;48.248;-1.700;2022-08-11T08:41:45;0.00;;;0.00;;
46925;SDS011;32667;48.248;-1.700;2022-08-11T08:44:17;0.00;;;0.00;;
46925;SDS011;32667;48.248;-1.700;2022-08-11T08:46:47;0.10;;;0.10;;
46925;SDS011;32667;48.248;-1.700;2022-08-11T08:49:17;0.10;;;0.10;;
46925;SDS011;32667;48.248;-1.700;2022-08-11T08:51:59;0.10;;;0.10;;
46925;SDS011;32667;48.248;-1.700;2022-08-11T08:54:32;0.10;;;0.10;;
46925;SDS011;32667;48.248;-1.700;2022-08-11T08:57:01;0.10;;;0.10;;
46925;SDS011;32667;48.248;-1.700;2022-08-11T08:59:29;0.03;;;0.03;;
46925;SDS011;32667;48.248;-1.700;2022-08-11T09:02:04;0.00;;;0.00;;
46925;SDS011;32667;48.248;-1.700;2022-08-11T09:04:32;0.00;;;0.00;;
46925;SDS011;32667;48.248;-1.700;2022-08-11T09:07:06;0.10;;;0.10;;
46925;SDS011;32667;48.248;-1.700;2022-08-11T09:09:37;0.00;;;0.00;;
46925;SDS011;32667;48.248;-1.700;2022-08-11T09:12:11;0.10;;;0.10;;
46925;SDS011;32667;48.248;-1.700;2022-08-11T09:14:38;0.10;;;0.10;;
46925;SDS011;32667;48.248;-1.700;2022-08-11T09:17:24;0.10;;;0.10;;
46925;SDS011;32667;48.248;-1.700;2022-08-11T09:19:57;0.10;;;0.10;;
46925;SDS011;32667;48.248;-1.700;2022-08-11T09:22:35;0.00;;;0.00;;
46925;SDS011;32667;48.248;-1.700;2022-08-11T09:25:21;0.00;;;0.00;;
46925;SDS011;32667;48.248;-1.700;2022-08-11T09:28:09;0.00;;;0.00;;
46925;SDS011;32667;48.248;-1.700;2022-08-11T09:30:39;0.00;;;0.00;;
46925;SDS011;32667;48.248;-1.700;2022-08-11T09:33:06;0.00;;;0.00;;
46925;SDS011;32667;48.248;-1.700;2022-08-11T09:35:35;0.08;;;0.08;;
46925;SDS011;32667;48.248;-1.700;2022-08-11T09:38:03;0.00;;;0.00;;
46925;SDS011;32667;48.248;-1.700;2022-08-11T09:40:49;0.00;;;0.00;;
46925;SDS011;32667;48.248;-1.700;2022-08-11T09:43:16;0.00;;;0.00;;
46925;SDS011;32667;48.248;-1.700;2022-08-11T09:46:03;0.00;;;0.00;;
46925;SDS011;32667;48.248;-1.700;2022-08-11T09:48:34;0.00;;;0.00;;
46925;SDS011;32667;48.248;-1.700;2022-08-11T09:51:02;0.10;;;0.10;;
46925;SDS011;32667;48.248;-1.700;2022-08-11T09:53:32;0.00;;;0.00;;
46925;SDS011;32667;48.248;-1.700;2022-08-11T09:56:01;0.00;;;0.00;;
46925;SDS011;32667;48.248;-1.700;2022-08-11T09:58:47;0.00;;;0.00;;
46925;SDS011;32667;48.248;-1.700;2022-08-11T10:01:13;0.00;;;0.00;;
46925;SDS011;32667;48.248;-1.700;2022-08-11T10:03:53;0.00;;;0.00;;
46925;SDS011;32667;48.248;-1.700;2022-08-11T10:09:16;0.10;;;0.10;;
46925;SDS011;32667;48.248;-1.700;2022-08-11T10:11:44;0.00;;;0.00;;
46925;SDS011;32667;48.248;-1.700;2022-08-11T10:14:11;0.00;;;0.00;;
46925;SDS011;32667;48.248;-1.700;2022-08-11T10:16:56;0.00;;;0.00;;
46925;SDS011;32667;48.248;-1.700;2022-08-11T10:19:22;0.08;;;0.08;;
46925;SDS011;32667;48.248;-1.700;2022-08-11T10:21:52;0.03;;;0.03;;
46925;SDS011;32667;48.248;-1.700;2022-08-11T10:24:40;0.00;;;0.00;;
46925;SDS011;32667;48.248;-1.700;2022-08-11T10:27:26;0.00;;;0.00;;
46925;SDS011;32667;48.248;-1.700;2022-08-11T10:29:53;0.00;;;0.00;;
46925;SDS011;32667;48.248;-1.700;2022-08-11T10:35:22;0.00;;;0.00;;
46925;SDS011;32667;48.248;-1.700;2022-08-11T10:37:51;0.00;;;0.00;;
46925;SDS011;32667;48.248;-1.700;2022-08-11T10:40:19;0.00;;;0.00;;
46925;SDS011;32667;48.248;-1.700;2022-08-11T10:42:48;0.10;;;0.10;;
46925;SDS011;32667;48.248;-1.700;2022-08-11T10:45:28;0.00;;;0.00;;
46925;SDS011;32667;48.248;-1.700;2022-08-11T10:48:13;0.00;;;0.00;;
46925;SDS011;32667;48.248;-1.700;2022-08-11T10:50:43;0.03;;;0.03;;
46925;SDS011;32667;48.248;-1.700;2022-08-11T10:53:29;0.00;;;0.00;;
46925;SDS011;32667;48.248;-1.700;2022-08-11T10:56:14;0.00;;;0.00;;
46925;SDS011;32667;48.248;-1.700;2022-08-11T10:59:01;0.10;;;0.10;;
46925;SDS011;32667;48.248;-1.700;2022-08-11T11:01:32;0.00;;;0.00;;
46925;SDS011;32667;48.248;-1.700;2022-08-11T11:04:09;0.00;;;0.00;;
46925;SDS011;32667;48.248;-1.700;2022-08-11T11:06:53;0.00;;;0.00;;
46925;SDS011;32667;48.248;-1.700;2022-08-11T11:09:53;0.00;;;0.00;;
46925;SDS011;32667;48.248;-1.700;2022-08-11T11:12:43;0.00;;;0.00;;
46925;SDS011;32667;48.248;-1.700;2022-08-11T11:15:30;0.00;;;0.00;;
46925;SDS011;32667;48.248;-1.700;2022-08-11T11:21:05;0.00;;;0.00;;
46925;SDS011;32667;48.248;-1.700;2022-08-11T11:34:14;0.00;;;0.00;;
46925;SDS011;32667;48.248;-1.700;2022-08-11T11:36:54;0.00;;;0.00;;
46925;SDS011;32667;48.248;-1.700;2022-08-11T11:39:22;0.00;;;0.00;;
46925;SDS011;32667;48.248;-1.700;2022-08-11T11:41:52;0.00;;;0.00;;
46925;SDS011;32667;48.248;-1.700;2022-08-11T11:44:26;0.00;;;0.00;;
46925;SDS011;32667;48.248;-1.700;2022-08-11T11:46:52;0.00;;;0.00;;
46925;SDS011;32667;48.248;-1.700;2022-08-11T11:49:22;0.00;;;0.00;;
46925;SDS011;32667;48.248;-1.700;2022-08-11T11:51:51;0.00;;;0.00;;
46925;SDS011;32667;48.248;-1.700;2022-08-11T11:54:22;0.00;;;0.00;;
46925;SDS011;32667;48.248;-1.700;2022-08-11T11:56:54;0.00;;;0.00;;
46925;SDS011;32667;48.248;-1.700;2022-08-11T11:59:21;0.00;;;0.00;;
46925;SDS011;32667;48.248;-1.700;2022-08-11T12:02:09;0.00;;;0.00;;
46925;SDS011;32667;48.248;-1.700;2022-08-11T12:04:43;0.00;;;0.00;;
46925;SDS011;32667;48.248;-1.700;2022-08-11T12:07:12;0.10;;;0.10;;
46925;SDS011;32667;48.248;-1.700;2022-08-11T12:09:58;0.00;;;0.00;;
46925;SDS011;32667;48.248;-1.700;2022-08-11T12:12:25;0.00;;;0.00;;
46925;SDS011;32667;48.248;-1.700;2022-08-11T12:15:10;0.10;;;0.10;;
46925;SDS011;32667;48.248;-1.700;2022-08-11T12:17:37;0.08;;;0.08;;
46925;SDS011;32667;48.248;-1.700;2022-08-11T12:20:05;0.00;;;0.00;;
46925;SDS011;32667;48.248;-1.700;2022-08-11T12:22:32;0.00;;;0.00;;
46925;SDS011;32667;48.248;-1.700;2022-08-11T12:25:27;0.00;;;0.00;;
46925;SDS011;32667;48.248;-1.700;2022-08-11T12:28:12;0.05;;;0.05;;
46925;SDS011;32667;48.248;-1.700;2022-08-11T12:30:38;0.10;;;0.10;;
46925;SDS011;32667;48.248;-1.700;2022-08-11T12:33:05;0.00;;;0.00;;
46925;SDS011;32667;48.248;-1.700;2022-08-11T12:35:32;0.00;;;0.00;;
46925;SDS011;32667;48.248;-1.700;2022-08-11T12:38:05;0.00;;;0.00;;
46925;SDS011;32667;48.248;-1.700;2022-08-11T12:40:35;0.00;;;0.00;;
46925;SDS011;32667;48.248;-1.700;2022-08-11T12:43:21;0.00;;;0.00;;
46925;SDS011;32667;48.248;-1.700;2022-08-11T12:46:15;0.00;;;0.00;;
46925;SDS011;32667;48.248;-1.700;2022-08-11T12:48:47;0.00;;;0.00;;
46925;SDS011;32667;48.248;-1.700;2022-08-11T12:51:40;0.00;;;0.00;;
46925;SDS011;32667;48.248;-1.700;2022-08-11T12:57:16;0.00;;;0.00;;
46925;SDS011;32667;48.248;-1.700;2022-08-11T13:00:10;0.00;;;0.00;;
46925;SDS011;32667;48.248;-1.700;2022-08-11T13:02:56;0.00;;;0.00;;
46925;SDS011;32667;48.248;-1.700;2022-08-11T13:05:41;0.00;;;0.00;;
46925;SDS011;32667;48.248;-1.700;2022-08-11T13:08:10;0.00;;;0.00;;
46925;SDS011;32667;48.248;-1.700;2022-08-11T13:10:44;0.00;;;0.00;;
46925;SDS011;32667;48.248;-1.700;2022-08-11T13:13:32;0.00;;;0.00;;
46925;SDS011;32667;48.248;-1.700;2022-08-11T13:15:58;0.00;;;0.00;;
46925;SDS011;32667;48.248;-1.700;2022-08-11T13:18:25;0.00;;;0.00;;
46925;SDS011;32667;48.248;-1.700;2022-08-11T13:21:02;0.00;;;0.00;;
46925;SDS011;32667;48.248;-1.700;2022-08-11T13:23:29;0.00;;;0.00;;
46925;SDS011;32667;48.248;-1.700;2022-08-11T13:25:56;0.00;;;0.00;;
46925;SDS011;32667;48.248;-1.700;2022-08-11T13:28:22;0.00;;;0.00;;
46925;SDS011;32667;48.248;-1.700;2022-08-11T13:30:49;0.00;;;0.00;;
46925;SDS011;32667;48.248;-1.700;2022-08-11T13:33:35;0.00;;;0.00;;
46925;SDS011;32667;48.248;-1.700;2022-08-11T13:36:06;0.00;;;0.00;;
46925;SDS011;32667;48.248;-1.700;2022-08-11T13:38:34;0.00;;;0.00;;
46925;SDS011;32667;48.248;-1.700;2022-08-11T13:41:01;0.00;;;0.00;;
46925;SDS011;32667;48.248;-1.700;2022-08-11T13:43:48;0.00;;;0.00;;
46925;SDS011;32667;48.248;-1.700;2022-08-11T13:46:15;0.00;;;0.00;;
46925;SDS011;32667;48.248;-1.700;2022-08-11T13:48:44;0.00;;;0.00;;
46925;SDS011;32667;48.248;-1.700;2022-08-11T13:51:11;0.00;;;0.00;;
46925;SDS011;32667;48.248;-1.700;2022-08-11T13:56:32;0.00;;;0.00;;
46925;SDS011;32667;48.248;-1.700;2022-08-11T13:59:00;0.10;;;0.10;;
46925;SDS011;32667;48.248;-1.700;2022-08-11T14:01:29;0.00;;;0.00;;
46925;SDS011;32667;48.248;-1.700;2022-08-11T14:04:03;0.00;;;0.00;;
46925;SDS011;32667;48.248;-1.700;2022-08-11T14:06:33;0.00;;;0.00;;
46925;SDS011;32667;48.248;-1.700;2022-08-11T14:09:02;0.00;;;0.00;;
46925;SDS011;32667;48.248;-1.700;2022-08-11T14:11:32;0.00;;;0.00;;
46925;SDS011;32667;48.248;-1.700;2022-08-11T14:14:20;0.08;;;0.08;;
46925;SDS011;32667;48.248;-1.700;2022-08-11T14:16:49;0.10;;;0.10;;
46925;SDS011;32667;48.248;-1.700;2022-08-11T14:19:21;0.10;;;0.10;;
46925;SDS011;32667;48.248;-1.700;2022-08-11T14:21:50;0.00;;;0.00;;
46925;SDS011;32667;48.248;-1.700;2022-08-11T14:24:43;0.00;;;0.00;;
46925;SDS011;32667;48.248;-1.700;2022-08-11T14:27:14;0.00;;;0.00;;
46925;SDS011;32667;48.248;-1.700;2022-08-11T14:29:42;0.00;;;0.00;;
46925;SDS011;32667;48.248;-1.700;2022-08-11T14:32:10;0.00;;;0.00;;
46925;SDS011;32667;48.248;-1.700;2022-08-11T14:34:39;0.00;;;0.00;;
46925;SDS011;32667;48.248;-1.700;2022-08-11T14:37:10;0.10;;;0.10;;
46925;SDS011;32667;48.248;-1.700;2022-08-11T14:39:42;0.08;;;0.08;;
46925;SDS011;32667;48.248;-1.700;2022-08-11T14:42:15;0.00;;;0.00;;
46925;SDS011;32667;48.248;-1.700;2022-08-11T14:45:03;0.00;;;0.00;;
46925;SDS011;32667;48.248;-1.700;2022-08-11T14:47:59;0.00;;;0.00;;
46925;SDS011;32667;48.248;-1.700;2022-08-11T14:50:28;0.00;;;0.00;;
46925;SDS011;32667;48.248;-1.700;2022-08-11T14:52:57;0.00;;;0.00;;
46925;SDS011;32667;48.248;-1.700;2022-08-11T14:55:36;0.00;;;0.00;;
46925;SDS011;32667;48.248;-1.700;2022-08-11T14:58:25;0.00;;;0.00;;
46925;SDS011;32667;48.248;-1.700;2022-08-11T15:00:57;0.00;;;0.00;;
46925;SDS011;32667;48.248;-1.700;2022-08-11T15:03:26;0.00;;;0.00;;
46925;SDS011;32667;48.248;-1.700;2022-08-11T15:05:55;0.00;;;0.00;;
46925;SDS011;32667;48.248;-1.700;2022-08-11T15:08:34;0.00;;;0.00;;
46925;SDS011;32667;48.248;-1.700;2022-08-11T15:11:24;0.00;;;0.00;;
46925;SDS011;32667;48.248;-1.700;2022-08-11T15:14:12;0.00;;;0.00;;
46925;SDS011;32667;48.248;-1.700;2022-08-11T15:16:40;0.00;;;0.00;;
46925;SDS011;32667;48.248;-1.700;2022-08-11T15:19:30;0.00;;;0.00;;
46925;SDS011;32667;48.248;-1.700;2022-08-11T15:21:59;0.00;;;0.00;;
46925;SDS011;32667;48.248;-1.700;2022-08-11T15:24:44;0.00;;;0.00;;
46925;SDS011;32667;48.248;-1.700;2022-08-11T15:27:13;0.00;;;0.00;;
46925;SDS011;32667;48.248;-1.700;2022-08-11T15:30:03;0.00;;;0.00;;
46925;SDS011;32667;48.248;-1.700;2022-08-11T15:33:09;0.00;;;0.00;;
46925;SDS011;32667;48.248;-1.700;2022-08-11T15:35:56;0.00;;;0.00;;
46925;SDS011;32667;48.248;-1.700;2022-08-11T15:38:48;0.00;;;0.00;;
46925;SDS011;32667;48.248;-1.700;2022-08-11T15:41:19;0.00;;;0.00;;
46925;SDS011;32667;48.248;-1.700;2022-08-11T15:44:07;0.00;;;0.00;;
46925;SDS011;32667;48.248;-1.700;2022-08-11T15:46:54;0.00;;;0.00;;
46925;SDS011;32667;48.248;-1.700;2022-08-11T15:49:28;0.00;;;0.00;;
46925;SDS011;32667;48.248;-1.700;2022-08-11T15:51:58;0.00;;;0.00;;
46925;SDS011;32667;48.248;-1.700;2022-08-11T15:54:35;0.00;;;0.00;;
46925;SDS011;32667;48.248;-1.700;2022-08-11T15:57:06;0.00;;;0.00;;
46925;SDS011;32667;48.248;-1.700;2022-08-11T15:59:58;0.00;;;0.00;;
46925;SDS011;32667;48.248;-1.700;2022-08-11T16:02:49;0.00;;;0.00;;
46925;SDS011;32667;48.248;-1.700;2022-08-11T16:05:22;0.00;;;0.00;;
46925;SDS011;32667;48.248;-1.700;2022-08-11T16:07:51;0.00;;;0.00;;
46925;SDS011;32667;48.248;-1.700;2022-08-11T16:10:19;0.00;;;0.00;;
46925;SDS011;32667;48.248;-1.700;2022-08-11T16:12:49;0.00;;;0.00;;
46925;SDS011;32667;48.248;-1.700;2022-08-11T16:15:32;0.00;;;0.00;;
46925;SDS011;32667;48.248;-1.700;2022-08-11T16:18:19;0.00;;;0.00;;
46925;SDS011;32667;48.248;-1.700;2022-08-11T16:20:50;0.00;;;0.00;;
46925;SDS011;32667;48.248;-1.700;2022-08-11T16:23:19;0.00;;;0.00;;
46925;SDS011;32667;48.248;-1.700;2022-08-11T16:25:50;0.00;;;0.00;;
46925;SDS011;32667;48.248;-1.700;2022-08-11T16:28:19;0.00;;;0.00;;
46925;SDS011;32667;48.248;-1.700;2022-08-11T16:30:46;0.00;;;0.00;;
46925;SDS011;32667;48.248;-1.700;2022-08-11T16:33:13;0.00;;;0.00;;
46925;SDS011;32667;48.248;-1.700;2022-08-11T16:35:39;0.00;;;0.00;;
46925;SDS011;32667;48.248;-1.700;2022-08-11T16:38:26;0.00;;;0.00;;
46925;SDS011;32667;48.248;-1.700;2022-08-11T16:41:10;0.00;;;0.00;;
46925;SDS011;32667;48.248;-1.700;2022-08-11T16:43:41;0.00;;;0.00;;
46925;SDS011;32667;48.248;-1.700;2022-08-11T16:46:27;0.00;;;0.00;;
46925;SDS011;32667;48.248;-1.700;2022-08-11T16:49:20;0.00;;;0.00;;
46925;SDS011;32667;48.248;-1.700;2022-08-11T16:51:49;0.00;;;0.00;;
46925;SDS011;32667;48.248;-1.700;2022-08-11T16:54:15;0.00;;;0.00;;
46925;SDS011;32667;48.248;-1.700;2022-08-11T16:56:48;0.00;;;0.00;;
46925;SDS011;32667;48.248;-1.700;2022-08-11T17:01:55;0.00;;;0.00;;
46925;SDS011;32667;48.248;-1.700;2022-08-11T17:07:12;0.00;;;0.00;;
46925;SDS011;32667;48.248;-1.700;2022-08-11T17:09:59;0.00;;;0.00;;
46925;SDS011;32667;48.248;-1.700;2022-08-11T17:12:45;0.00;;;0.00;;
46925;SDS011;32667;48.248;-1.700;2022-08-11T17:15:32;0.00;;;0.00;;
46925;SDS011;32667;48.248;-1.700;2022-08-11T17:18:23;0.00;;;0.00;;
46925;SDS011;32667;48.248;-1.700;2022-08-11T17:21:11;0.00;;;0.00;;
46925;SDS011;32667;48.248;-1.700;2022-08-11T17:23:47;0.00;;;0.00;;
46925;SDS011;32667;48.248;-1.700;2022-08-11T17:26:20;0.00;;;0.00;;
46925;SDS011;32667;48.248;-1.700;2022-08-11T17:28:47;0.00;;;0.00;;
46925;SDS011;32667;48.248;-1.700;2022-08-11T17:31:17;0.00;;;0.00;;
46925;SDS011;32667;48.248;-1.700;2022-08-11T17:34:03;0.00;;;0.00;;
46925;SDS011;32667;48.248;-1.700;2022-08-11T17:36:49;0.00;;;0.00;;
46925;SDS011;32667;48.248;-1.700;2022-08-11T17:39:20;0.00;;;0.00;;
46925;SDS011;32667;48.248;-1.700;2022-08-11T17:41:53;0.10;;;0.10;;
46925;SDS011;32667;48.248;-1.700;2022-08-11T17:44:38;0.00;;;0.00;;
46925;SDS011;32667;48.248;-1.700;2022-08-11T17:47:24;0.00;;;0.00;;
46925;SDS011;32667;48.248;-1.700;2022-08-11T17:50:09;0.00;;;0.00;;
46925;SDS011;32667;48.248;-1.700;2022-08-11T17:52:37;0.00;;;0.00;;
46925;SDS011;32667;48.248;-1.700;2022-08-11T17:55:24;0.00;;;0.00;;
46925;SDS011;32667;48.248;-1.700;2022-08-11T17:58:08;0.00;;;0.00;;
46925;SDS011;32667;48.248;-1.700;2022-08-11T18:00:54;0.00;;;0.00;;
46925;SDS011;32667;48.248;-1.700;2022-08-11T18:03:21;0.00;;;0.00;;
46925;SDS011;32667;48.248;-1.700;2022-08-11T18:05:57;0.00;;;0.00;;
46925;SDS011;32667;48.248;-1.700;2022-08-11T18:08:27;0.00;;;0.00;;
46925;SDS011;32667;48.248;-1.700;2022-08-11T18:11:13;0.00;;;0.00;;
46925;SDS011;32667;48.248;-1.700;2022-08-11T18:14:00;0.00;;;0.00;;
46925;SDS011;32667;48.248;-1.700;2022-08-11T18:16:49;0.00;;;0.00;;
46925;SDS011;32667;48.248;-1.700;2022-08-11T18:22:22;0.00;;;0.00;;
46925;SDS011;32667;48.248;-1.700;2022-08-11T18:25:12;0.00;;;0.00;;
46925;SDS011;32667;48.248;-1.700;2022-08-11T18:27:59;0.00;;;0.00;;
46925;SDS011;32667;48.248;-1.700;2022-08-11T18:30:46;0.00;;;0.00;;
46925;SDS011;32667;48.248;-1.700;2022-08-11T18:33:36;0.00;;;0.00;;
46925;SDS011;32667;48.248;-1.700;2022-08-11T18:36:44;0.00;;;0.00;;
46925;SDS011;32667;48.248;-1.700;2022-08-11T18:39:35;0.00;;;0.00;;
46925;SDS011;32667;48.248;-1.700;2022-08-11T18:42:26;0.00;;;0.00;;
46925;SDS011;32667;48.248;-1.700;2022-08-11T18:45:14;0.00;;;0.00;;
46925;SDS011;32667;48.248;-1.700;2022-08-11T18:48:02;0.00;;;0.00;;
46925;SDS011;32667;48.248;-1.700;2022-08-11T18:50:50;0.00;;;0.00;;
46925;SDS011;32667;48.248;-1.700;2022-08-11T18:53:38;0.00;;;0.00;;
46925;SDS011;32667;48.248;-1.700;2022-08-11T18:56:25;0.00;;;0.00;;
46925;SDS011;32667;48.248;-1.700;2022-08-11T18:59:12;0.00;;;0.00;;
46925;SDS011;32667;48.248;-1.700;2022-08-11T19:02:00;0.00;;;0.00;;
46925;SDS011;32667;48.248;-1.700;2022-08-11T19:04:46;0.00;;;0.00;;
46925;SDS011;32667;48.248;-1.700;2022-08-11T19:10:18;0.00;;;0.00;;
46925;SDS011;32667;48.248;-1.700;2022-08-11T19:13:05;0.00;;;0.00;;
46925;SDS011;32667;48.248;-1.700;2022-08-11T19:15:52;0.00;;;0.00;;
46925;SDS011;32667;48.248;-1.700;2022-08-11T19:18:38;0.00;;;0.00;;
46925;SDS011;32667;48.248;-1.700;2022-08-11T19:21:25;0.00;;;0.00;;
46925;SDS011;32667;48.248;-1.700;2022-08-11T19:24:12;0.08;;;0.08;;
46925;SDS011;32667;48.248;-1.700;2022-08-11T19:26:58;0.10;;;0.10;;
46925;SDS011;32667;48.248;-1.700;2022-08-11T19:29:43;0.00;;;0.00;;
46925;SDS011;32667;48.248;-1.700;2022-08-11T19:32:28;0.00;;;0.00;;
46925;SDS011;32667;48.248;-1.700;2022-08-11T19:35:14;0.00;;;0.00;;
46925;SDS011;32667;48.248;-1.700;2022-08-11T19:37:59;0.00;;;0.00;;
46925;SDS011;32667;48.248;-1.700;2022-08-11T19:40:46;0.00;;;0.00;;
46925;SDS011;32667;48.248;-1.700;2022-08-11T19:43:34;0.00;;;0.00;;
46925;SDS011;32667;48.248;-1.700;2022-08-11T19:46:21;0.00;;;0.00;;
46925;SDS011;32667;48.248;-1.700;2022-08-11T19:49:07;0.00;;;0.00;;
46925;SDS011;32667;48.248;-1.700;2022-08-11T19:51:52;0.00;;;0.00;;
46925;SDS011;32667;48.248;-1.700;2022-08-11T19:54:39;0.00;;;0.00;;
46925;SDS011;32667;48.248;-1.700;2022-08-11T19:57:25;0.00;;;0.00;;
46925;SDS011;32667;48.248;-1.700;2022-08-11T20:00:17;0.00;;;0.00;;
46925;SDS011;32667;48.248;-1.700;2022-08-11T20:03:04;0.00;;;0.00;;